createdAt,value
2019-05-29T00:01:21.794Z,10.40
2019-05-29T00:03:50.116Z,10.30
2019-05-29T00:06:18.665Z,10.30
2019-05-29T00:08:47.412Z,10.30
2019-05-29T00:11:16.077Z,10.20
2019-05-29T00:13:44.789Z,10.20
2019-05-29T00:16:14.414Z,10.20
2019-05-29T00:18:43.393Z,10.10
2019-05-29T00:21:13.050Z,10.10
2019-05-29T00:23:41.674Z,10.10
2019-05-29T00:26:10.426Z,10.00
2019-05-29T00:28:39.015Z,10.00
2019-05-29T00:31:07.713Z,10.00
2019-05-29T00:33:36.628Z,9.90
2019-05-29T00:36:06.161Z,9.90
2019-05-29T00:38:35.124Z,9.90
2019-05-29T00:41:03.556Z,9.90
2019-05-29T00:43:32.238Z,9.80
2019-05-29T00:46:00.976Z,9.80
2019-05-29T00:48:29.774Z,9.80
2019-05-29T00:50:58.287Z,9.70
2019-05-29T00:53:26.744Z,9.60
2019-05-29T00:55:55.515Z,9.60
2019-05-29T00:58:23.968Z,9.60
2019-05-29T01:00:52.648Z,9.50
2019-05-29T01:03:21.470Z,9.50
2019-05-29T01:05:49.886Z,9.40
2019-05-29T01:08:18.496Z,9.40
2019-05-29T01:10:46.916Z,9.30
2019-05-29T01:13:15.700Z,9.30
2019-05-29T01:15:44.388Z,9.30
2019-05-29T01:18:13.798Z,9.30
2019-05-29T01:20:42.443Z,9.30
2019-05-29T01:23:12.080Z,9.40
2019-05-29T01:25:40.700Z,9.30
2019-05-29T01:28:09.152Z,9.40
2019-05-29T01:30:37.825Z,9.40
2019-05-29T01:33:06.278Z,9.40
2019-05-29T01:35:34.697Z,9.40
2019-05-29T01:38:03.141Z,9.30
2019-05-29T01:40:31.572Z,9.30
2019-05-29T01:43:00.033Z,9.00
2019-05-29T01:45:28.527Z,9.10
2019-05-29T01:47:57.298Z,9.00
2019-05-29T01:50:25.969Z,9.00
2019-05-29T01:52:54.384Z,9.00
2019-05-29T01:55:23.794Z,9.00
2019-05-29T01:57:52.401Z,9.00
2019-05-29T02:00:21.992Z,9.00
2019-05-29T02:02:50.821Z,9.00
2019-05-29T02:05:20.052Z,9.10
2019-05-29T02:07:48.659Z,9.10
2019-05-29T02:10:18.212Z,9.10
2019-05-29T02:12:46.840Z,9.10
2019-05-29T02:15:27.033Z,9.00
2019-05-29T02:17:46.664Z,9.00
2019-05-29T02:20:16.817Z,9.00
2019-05-29T02:22:45.596Z,9.00
2019-05-29T02:25:17.310Z,9.00
2019-05-29T02:27:44.512Z,9.00
2019-05-29T02:30:13.457Z,9.00
2019-05-29T02:32:42.216Z,9.00
2019-05-29T02:35:10.735Z,9.00
2019-05-29T02:37:39.176Z,9.00
2019-05-29T02:40:08.459Z,9.00
2019-05-29T02:42:36.885Z,9.10
2019-05-29T02:45:07.224Z,9.10
2019-05-29T02:47:35.646Z,9.10
2019-05-29T02:50:07.181Z,9.20
2019-05-29T02:52:35.847Z,9.30
2019-05-29T02:55:07.353Z,9.30
2019-05-29T02:57:35.773Z,9.30
2019-05-29T03:00:08.172Z,9.30
2019-05-29T03:02:36.625Z,9.20
2019-05-29T03:05:06.700Z,9.20
2019-05-29T03:07:35.873Z,9.20
2019-05-29T03:10:06.812Z,9.20
2019-05-29T03:12:35.315Z,9.30
2019-05-29T03:15:06.357Z,9.30
2019-05-29T03:17:34.776Z,9.30
2019-05-29T03:20:04.203Z,9.40
2019-05-29T03:22:33.766Z,9.30
2019-05-29T03:25:03.614Z,9.40
2019-05-29T03:27:33.862Z,9.50
2019-05-29T03:30:02.774Z,9.50
2019-05-29T03:32:37.762Z,9.50
2019-05-29T03:35:01.921Z,9.50
2019-05-29T03:37:30.570Z,9.50
2019-05-29T03:40:00.742Z,9.60
2019-05-29T03:42:30.380Z,9.60
2019-05-29T03:44:58.902Z,9.70
2019-05-29T03:47:28.720Z,9.70
2019-05-29T03:49:57.538Z,9.70
2019-05-29T03:52:26.884Z,9.70
2019-05-29T03:54:56.386Z,9.80
2019-05-29T03:57:24.809Z,9.80
2019-05-29T03:59:53.258Z,9.80
2019-05-29T04:02:21.941Z,9.80
2019-05-29T04:04:50.368Z,9.90
2019-05-29T04:07:18.798Z,9.90
2019-05-29T04:09:47.237Z,10.00
2019-05-29T04:12:19.014Z,10.00
2019-05-29T04:14:46.359Z,10.10
2019-05-29T04:17:14.853Z,10.20
2019-05-29T04:19:44.241Z,10.20
2019-05-29T04:22:14.526Z,10.30
2019-05-29T04:24:42.972Z,10.30
2019-05-29T04:27:13.750Z,10.30
2019-05-29T04:29:43.291Z,10.40
2019-05-29T04:32:11.733Z,10.40
2019-05-29T04:34:40.438Z,10.50
2019-05-29T04:37:08.879Z,10.50
2019-05-29T04:42:25.044Z,10.60
2019-05-29T04:44:53.555Z,10.60
2019-05-29T04:47:22.234Z,10.60
2019-05-29T04:49:50.682Z,10.60
2019-05-29T04:52:19.390Z,10.60
2019-05-29T04:54:48.062Z,10.60
2019-05-29T04:57:16.574Z,10.60
2019-05-29T04:59:45.010Z,10.50
2019-05-29T05:02:13.441Z,10.50
2019-05-29T05:04:42.123Z,10.40
2019-05-29T05:07:10.561Z,10.50
2019-05-29T05:09:39.612Z,10.50
2019-05-29T05:12:08.488Z,10.50
2019-05-29T05:14:37.807Z,10.70
2019-05-29T05:17:06.639Z,10.90
2019-05-29T05:19:35.959Z,11.10
2019-05-29T05:22:04.841Z,11.20
2019-05-29T05:24:34.174Z,11.40
2019-05-29T05:27:02.748Z,11.50
2019-05-29T05:29:32.112Z,11.60
2019-05-29T05:32:00.598Z,11.60
2019-05-29T05:34:30.469Z,11.60
2019-05-29T05:36:59.040Z,11.60
2019-05-29T05:39:27.795Z,11.50
2019-05-29T05:41:56.228Z,11.40
2019-05-29T05:44:24.644Z,11.40
2019-05-29T05:46:53.081Z,11.40
2019-05-29T05:49:21.499Z,11.40
2019-05-29T05:51:50.193Z,11.50
2019-05-29T05:54:18.632Z,11.60
2019-05-29T05:56:47.061Z,11.60
2019-05-29T05:59:15.513Z,11.70
2019-05-29T06:01:43.981Z,11.80
2019-05-29T06:04:12.707Z,11.90
2019-05-29T06:06:42.250Z,12.00
2019-05-29T06:09:10.857Z,12.10
2019-05-29T06:11:40.389Z,12.20
2019-05-29T06:14:08.838Z,12.30
2019-05-29T06:16:38.538Z,12.50
2019-05-29T06:19:07.363Z,12.60
2019-05-29T06:21:36.719Z,12.60
2019-05-29T06:24:05.471Z,12.70
2019-05-29T06:26:34.834Z,12.50
2019-05-29T06:29:03.309Z,12.50
2019-05-29T06:31:33.223Z,12.60
2019-05-29T06:34:01.760Z,12.80
2019-05-29T06:36:30.201Z,12.90
2019-05-29T06:38:58.634Z,12.90
2019-05-29T06:41:27.329Z,13.10
2019-05-29T06:43:55.840Z,13.30
2019-05-29T06:46:24.515Z,13.40
2019-05-29T06:48:59.694Z,13.70
2019-05-29T06:51:23.180Z,13.90
2019-05-29T06:53:51.904Z,13.90
2019-05-29T06:56:20.342Z,14.00
2019-05-29T06:58:49.097Z,14.20
2019-05-29T07:01:17.608Z,14.40
2019-05-29T07:03:46.308Z,14.60
2019-05-29T07:06:14.981Z,14.60
2019-05-29T07:08:47.926Z,14.60
2019-05-29T07:11:13.582Z,14.60
2019-05-29T07:13:45.243Z,14.70
2019-05-29T07:16:12.415Z,15.30
2019-05-29T07:19:09.423Z,15.70
2019-05-29T07:21:11.527Z,15.90
2019-05-29T07:23:41.254Z,16.30
2019-05-29T07:26:09.904Z,16.50
2019-05-29T07:28:55.461Z,16.80
2019-05-29T07:31:08.786Z,16.70
2019-05-29T07:33:37.228Z,16.60
2019-05-29T07:36:05.656Z,16.30
2019-05-29T07:38:34.093Z,15.90
2019-05-29T07:41:02.527Z,15.80
2019-05-29T07:43:31.218Z,16.00
2019-05-29T07:45:59.654Z,16.50
2019-05-29T07:48:28.377Z,16.80
2019-05-29T07:51:06.661Z,17.20
2019-05-29T07:53:27.211Z,17.20
2019-05-29T07:55:55.655Z,16.50
2019-05-29T07:58:24.415Z,15.80
2019-05-29T08:01:12.294Z,15.40
2019-05-29T08:03:23.381Z,15.10
2019-05-29T08:05:53.346Z,15.10
2019-05-29T08:08:22.231Z,15.30
2019-05-29T08:10:50.661Z,15.50
2019-05-29T08:13:19.151Z,15.30
2019-05-29T08:15:59.915Z,15.60
2019-05-29T08:18:17.746Z,15.90
2019-05-29T08:20:46.421Z,16.10
2019-05-29T08:23:15.108Z,16.50
2019-05-29T08:25:43.531Z,16.50
2019-05-29T08:28:12.214Z,16.40
2019-05-29T08:30:41.211Z,16.40
2019-05-29T08:33:10.836Z,16.50
2019-05-29T08:35:41.378Z,16.50
2019-05-29T08:38:09.662Z,16.00
2019-05-29T08:40:38.098Z,15.90
2019-05-29T08:43:06.612Z,15.80
2019-05-29T08:45:35.286Z,16.00
2019-05-29T08:48:03.985Z,16.50
2019-05-29T08:50:32.435Z,16.80
2019-05-29T08:53:02.593Z,16.90
2019-05-29T08:55:31.240Z,17.30
2019-05-29T08:57:59.673Z,17.40
2019-05-29T09:00:28.129Z,17.40
2019-05-29T09:02:56.553Z,16.80
2019-05-29T09:05:25.040Z,16.60
2019-05-29T09:07:54.343Z,16.80
2019-05-29T09:10:22.980Z,17.10
2019-05-29T09:13:03.416Z,17.60
2019-05-29T09:15:22.027Z,17.80
2019-05-29T09:17:50.541Z,18.00
2019-05-29T09:20:36.630Z,17.30
2019-05-29T09:22:49.412Z,16.70
2019-05-29T09:25:18.981Z,16.80
2019-05-29T09:27:47.848Z,17.10
2019-05-29T09:30:17.133Z,17.50
2019-05-29T09:32:50.858Z,18.10
2019-05-29T09:35:19.455Z,17.70
2019-05-29T09:37:47.820Z,18.00
2019-05-29T09:40:19.186Z,18.70
2019-05-29T09:42:47.865Z,18.80
2019-05-29T09:45:17.800Z,17.80
2019-05-29T09:47:46.698Z,18.00
2019-05-29T09:50:16.946Z,18.80
2019-05-29T09:52:45.986Z,19.40
2019-05-29T09:55:14.597Z,19.80
2019-05-29T09:57:43.272Z,20.00
2019-05-29T10:00:12.063Z,20.00
2019-05-29T10:02:40.539Z,19.50
2019-05-29T10:05:09.466Z,19.70
2019-05-29T10:07:38.529Z,19.70
2019-05-29T10:10:09.935Z,19.50
2019-05-29T10:12:38.360Z,19.80
2019-05-29T10:15:09.106Z,20.40
2019-05-29T10:17:37.776Z,20.20
2019-05-29T10:20:08.905Z,19.50
2019-05-29T10:22:37.325Z,19.00
2019-05-29T10:25:09.008Z,18.70
2019-05-29T10:27:37.800Z,19.00
2019-05-29T10:30:08.168Z,19.50
2019-05-29T10:32:36.656Z,19.90
2019-05-29T10:35:05.646Z,20.30
2019-05-29T10:37:34.364Z,20.50
2019-05-29T10:40:03.788Z,19.80
2019-05-29T10:42:32.285Z,19.20
2019-05-29T10:45:00.730Z,19.30
2019-05-29T10:47:29.424Z,19.80
2019-05-29T10:49:57.853Z,20.00
2019-05-29T10:52:26.285Z,20.10
2019-05-29T10:54:54.721Z,19.40
2019-05-29T10:57:23.188Z,18.80
2019-05-29T10:59:52.804Z,18.40
2019-05-29T11:02:21.828Z,18.70
2019-05-29T11:04:54.607Z,19.20
2019-05-29T11:07:20.411Z,18.80
2019-05-29T11:09:50.102Z,18.50
2019-05-29T11:12:18.668Z,19.00
2019-05-29T11:14:47.094Z,19.40
2019-05-29T11:17:15.737Z,19.60
2019-05-29T11:19:44.233Z,20.10
2019-05-29T11:22:25.731Z,20.40
2019-05-29T11:24:42.891Z,20.50
2019-05-29T11:27:11.337Z,20.60
2019-05-29T11:29:40.005Z,20.40
2019-05-29T11:32:08.731Z,20.60
2019-05-29T11:34:37.183Z,20.70
2019-05-29T11:37:05.943Z,21.30
2019-05-29T11:39:34.364Z,21.60
2019-05-29T11:42:03.194Z,21.70
2019-05-29T11:44:31.663Z,21.20
2019-05-29T11:47:00.364Z,21.70
2019-05-29T11:49:29.031Z,21.70
2019-05-29T11:52:19.662Z,21.40
2019-05-29T11:54:27.872Z,21.80
2019-05-29T11:56:57.369Z,21.90
2019-05-29T11:59:26.152Z,22.30
2019-05-29T12:01:56.869Z,22.40
2019-05-29T12:04:26.890Z,22.70
2019-05-29T12:06:55.559Z,22.70
2019-05-29T12:09:32.856Z,22.80
2019-05-29T12:11:55.970Z,22.50
2019-05-29T12:14:24.704Z,22.20
2019-05-29T12:16:54.180Z,21.90
2019-05-29T12:19:23.421Z,21.60
2019-05-29T12:21:52.355Z,21.90
2019-05-29T12:24:20.909Z,22.10
2019-05-29T12:26:49.359Z,22.20
2019-05-29T12:29:18.115Z,22.20
2019-05-29T12:31:46.866Z,22.10
2019-05-29T12:34:19.063Z,21.70
2019-05-29T12:36:45.808Z,21.40
2019-05-29T12:39:14.233Z,21.20
2019-05-29T12:41:42.674Z,21.30
2019-05-29T12:44:11.111Z,21.30
2019-05-29T12:46:39.541Z,20.90
2019-05-29T12:49:08.213Z,20.60
2019-05-29T12:51:36.667Z,20.70
2019-05-29T12:54:05.325Z,20.90
2019-05-29T12:56:34.039Z,21.30
2019-05-29T12:59:02.817Z,21.60
2019-05-29T13:01:31.313Z,22.10
2019-05-29T13:04:00.430Z,22.60
2019-05-29T13:06:29.108Z,22.90
2019-05-29T13:08:58.488Z,23.10
2019-05-29T13:11:27.064Z,23.00
2019-05-29T13:13:56.282Z,22.80
2019-05-29T13:16:24.801Z,22.30
2019-05-29T13:18:54.724Z,21.80
2019-05-29T13:21:23.361Z,22.00
2019-05-29T13:23:51.804Z,21.60
2019-05-29T13:26:20.228Z,20.80
2019-05-29T13:28:48.668Z,21.00
2019-05-29T13:31:17.088Z,21.30
2019-05-29T13:33:45.792Z,21.30
2019-05-29T13:36:14.223Z,21.40
2019-05-29T13:38:42.669Z,21.70
2019-05-29T13:41:11.090Z,21.30
2019-05-29T13:43:39.552Z,21.60
2019-05-29T13:46:07.977Z,21.30
2019-05-29T13:48:36.433Z,20.60
2019-05-29T13:51:05.571Z,20.30
2019-05-29T13:53:34.094Z,20.50
2019-05-29T13:56:03.906Z,20.60
2019-05-29T13:58:32.884Z,20.90
2019-05-29T14:01:02.456Z,21.40
2019-05-29T14:03:31.031Z,21.20
2019-05-29T14:06:00.845Z,21.30
2019-05-29T14:08:30.076Z,21.50
2019-05-29T14:10:59.222Z,21.00
2019-05-29T14:13:28.081Z,20.80
2019-05-29T14:15:56.521Z,20.80
2019-05-29T14:18:25.215Z,20.90
2019-05-29T14:20:53.968Z,20.50
2019-05-29T14:23:22.392Z,20.60
2019-05-29T14:25:51.156Z,20.80
2019-05-29T14:28:19.608Z,21.20
2019-05-29T14:30:48.489Z,20.90
2019-05-29T14:33:17.269Z,20.60
2019-05-29T14:35:45.977Z,20.60
2019-05-29T14:38:15.207Z,20.90
2019-05-29T14:40:43.790Z,20.90
2019-05-29T14:43:15.367Z,20.70
2019-05-29T14:45:42.679Z,20.70
2019-05-29T14:48:13.109Z,20.70
2019-05-29T14:50:43.326Z,20.30
2019-05-29T14:53:13.355Z,20.40
2019-05-29T14:55:42.048Z,20.50
2019-05-29T14:58:11.892Z,20.70
2019-05-29T15:00:40.680Z,20.60
2019-05-29T15:03:09.447Z,20.60
2019-05-29T15:05:37.949Z,20.00
2019-05-29T15:08:07.885Z,19.40
2019-05-29T15:10:36.649Z,19.50
2019-05-29T15:13:06.591Z,19.30
2019-05-29T15:15:35.541Z,19.30
2019-05-29T15:18:04.898Z,19.00
2019-05-29T15:20:33.707Z,19.10
2019-05-29T15:23:02.168Z,19.20
2019-05-29T15:25:30.981Z,19.30
2019-05-29T15:27:59.405Z,19.50
2019-05-29T15:30:28.111Z,19.20
2019-05-29T15:32:56.575Z,18.90
2019-05-29T15:35:25.078Z,18.60
2019-05-29T15:37:53.836Z,18.40
2019-05-29T15:40:22.915Z,18.30
2019-05-29T15:42:52.369Z,18.10
2019-05-29T15:45:21.383Z,18.00
2019-05-29T15:47:49.832Z,17.90
2019-05-29T15:50:18.412Z,18.20
2019-05-29T15:52:46.870Z,18.50
2019-05-29T15:55:32.141Z,18.80
2019-05-29T15:57:46.538Z,18.90
2019-05-29T16:00:17.776Z,19.10
2019-05-29T16:02:49.012Z,19.20
2019-05-29T16:05:19.292Z,19.10
2019-05-29T16:07:48.207Z,19.20
2019-05-29T16:10:20.701Z,19.30
2019-05-29T16:12:48.511Z,19.20
2019-05-29T16:15:17.552Z,19.20
2019-05-29T16:17:46.365Z,19.10
2019-05-29T16:20:16.363Z,19.10
2019-05-29T16:22:49.656Z,19.20
2019-05-29T16:25:19.122Z,18.60
2019-05-29T16:27:47.731Z,18.20
2019-05-29T16:30:17.785Z,17.80
2019-05-29T16:32:46.505Z,17.70
2019-05-29T16:35:17.060Z,17.60
2019-05-29T16:37:45.964Z,17.50
2019-05-29T16:40:18.028Z,17.30
2019-05-29T16:42:46.675Z,17.20
2019-05-29T16:45:16.415Z,17.10
2019-05-29T16:47:44.925Z,17.10
2019-05-29T16:50:15.007Z,17.20
2019-05-29T16:52:43.734Z,17.40
2019-05-29T16:55:12.984Z,17.50
2019-05-29T16:57:42.285Z,17.70
2019-05-29T17:00:13.646Z,17.90
2019-05-29T17:02:42.366Z,18.00
2019-05-29T17:05:11.570Z,18.10
2019-05-29T17:07:40.091Z,17.80
2019-05-29T17:10:09.352Z,17.80
2019-05-29T17:12:37.788Z,17.80
2019-05-29T17:15:11.087Z,17.80
2019-05-29T17:17:39.861Z,17.90
2019-05-29T17:20:09.328Z,17.80
2019-05-29T17:22:38.165Z,17.70
2019-05-29T17:25:07.936Z,17.70
2019-05-29T17:27:36.394Z,17.30
2019-05-29T17:30:09.991Z,17.10
2019-05-29T17:32:38.687Z,17.10
2019-05-29T17:35:10.666Z,17.00
2019-05-29T17:37:39.182Z,16.80
2019-05-29T17:40:08.458Z,16.70
2019-05-29T17:42:37.148Z,16.60
2019-05-29T17:45:07.487Z,16.50
2019-05-29T17:47:36.228Z,16.40
2019-05-29T17:50:09.768Z,16.30
2019-05-29T17:52:38.284Z,16.30
2019-05-29T17:55:10.476Z,16.30
2019-05-29T17:57:38.916Z,16.30
2019-05-29T18:00:08.556Z,16.20
2019-05-29T18:02:50.912Z,16.30
2019-05-29T18:05:08.151Z,16.40
2019-05-29T18:07:36.588Z,16.30
2019-05-29T18:10:24.140Z,16.30
2019-05-29T18:12:53.665Z,16.30
2019-05-29T18:15:23.596Z,16.30
2019-05-29T18:17:52.170Z,16.30
2019-05-29T18:20:21.689Z,16.40
2019-05-29T18:22:51.189Z,16.30
2019-05-29T18:25:19.883Z,16.20
2019-05-29T18:27:48.574Z,16.20
2019-05-29T18:30:19.952Z,16.20
2019-05-29T18:32:48.752Z,16.10
2019-05-29T18:35:17.245Z,16.00
2019-05-29T18:37:45.700Z,15.90
2019-05-29T18:40:15.200Z,15.70
2019-05-29T18:42:43.670Z,15.70
2019-05-29T18:45:20.555Z,15.50
2019-05-29T18:47:43.177Z,15.40
2019-05-29T18:50:12.338Z,15.40
2019-05-29T18:52:40.781Z,15.30
2019-05-29T18:55:09.945Z,15.20
2019-05-29T18:57:38.417Z,15.00
2019-05-29T19:00:11.119Z,14.80
2019-05-29T19:02:39.801Z,14.70
2019-05-29T19:05:08.855Z,14.50
2019-05-29T19:07:37.568Z,14.30
2019-05-29T19:10:07.136Z,14.20
2019-05-29T19:12:35.929Z,14.10
2019-05-29T19:15:06.782Z,14.00
2019-05-29T19:17:35.296Z,13.90
2019-05-29T19:20:04.186Z,13.80
2019-05-29T19:22:32.891Z,13.70
2019-05-29T19:25:01.583Z,13.60
2019-05-29T19:27:39.073Z,13.60
2019-05-29T19:30:00.542Z,13.40
2019-05-29T19:32:29.395Z,13.40
2019-05-29T19:34:57.896Z,13.30
2019-05-29T19:37:27.819Z,13.30
2019-05-29T19:39:56.482Z,13.20
2019-05-29T19:42:26.089Z,13.10
2019-05-29T19:44:54.719Z,13.10
2019-05-29T19:47:24.494Z,13.00
2019-05-29T19:49:53.116Z,13.00
2019-05-29T19:52:21.541Z,12.90
2019-05-29T19:54:50.235Z,12.80
2019-05-29T19:57:18.662Z,12.80
2019-05-29T19:59:47.100Z,12.70
2019-05-29T20:02:15.768Z,12.60
2019-05-29T20:04:44.667Z,12.50
2019-05-29T20:07:13.144Z,12.50
2019-05-29T20:09:41.591Z,12.50
2019-05-29T20:12:10.356Z,12.40
2019-05-29T20:14:39.064Z,12.40
2019-05-29T20:17:07.739Z,12.30
2019-05-29T20:19:39.143Z,12.20
2019-05-29T20:22:06.627Z,12.20
2019-05-29T20:24:35.059Z,12.20
2019-05-29T20:27:03.488Z,12.10
2019-05-29T20:29:32.358Z,12.00
2019-05-29T20:32:00.956Z,12.00
2019-05-29T20:34:30.666Z,11.90
2019-05-29T20:36:59.470Z,11.80
2019-05-29T20:39:27.910Z,11.70
2019-05-29T20:41:56.363Z,11.70
2019-05-29T20:44:24.969Z,11.70
2019-05-29T20:46:53.663Z,11.60
2019-05-29T20:49:22.369Z,11.50
2019-05-29T20:51:51.116Z,11.50
2019-05-29T20:54:19.612Z,11.50
2019-05-29T20:56:48.043Z,11.40
2019-05-29T20:59:16.727Z,11.40
2019-05-29T21:01:47.544Z,11.30
2019-05-29T21:04:15.814Z,11.20
2019-05-29T21:06:44.242Z,11.10
2019-05-29T21:09:12.928Z,11.10
2019-05-29T21:11:41.799Z,11.00
2019-05-29T21:14:10.550Z,11.00
2019-05-29T21:16:39.765Z,10.90
2019-05-29T21:19:08.320Z,10.80
2019-05-29T21:21:36.741Z,10.70
2019-05-29T21:24:05.185Z,10.50
2019-05-29T21:26:35.005Z,10.50
2019-05-29T21:29:03.509Z,10.40
2019-05-29T21:31:32.530Z,10.20
2019-05-29T21:34:00.973Z,10.20
2019-05-29T21:36:29.422Z,10.10
2019-05-29T21:38:57.841Z,10.00
2019-05-29T21:41:26.533Z,10.10
2019-05-29T21:43:54.986Z,10.00
2019-05-29T21:46:23.708Z,9.90
2019-05-29T21:48:52.391Z,9.80
2019-05-29T21:51:20.813Z,9.80
2019-05-29T21:53:49.243Z,9.70
2019-05-29T21:56:17.752Z,9.70
2019-05-29T21:58:59.883Z,9.70
2019-05-29T22:01:16.405Z,9.60
2019-05-29T22:03:44.841Z,9.50
2019-05-29T22:06:13.576Z,9.50
2019-05-29T22:08:42.830Z,9.40
2019-05-29T22:11:11.406Z,9.30
2019-05-29T22:13:39.820Z,9.30
2019-05-29T22:16:08.244Z,9.30
2019-05-29T22:18:36.667Z,9.20
2019-05-29T22:21:05.096Z,9.10
2019-05-29T22:23:33.557Z,9.00
2019-05-29T22:26:02.036Z,9.00
2019-05-29T22:28:30.488Z,8.90
2019-05-29T22:30:59.465Z,8.90
2019-05-29T22:33:28.144Z,8.90
2019-05-29T22:35:57.504Z,8.90
2019-05-29T22:38:26.023Z,8.90
2019-05-29T22:40:55.522Z,8.90
2019-05-29T22:43:24.066Z,8.90
2019-05-29T22:45:53.540Z,8.90
2019-05-29T22:48:22.288Z,8.80
2019-05-29T22:50:51.635Z,8.80
2019-05-29T22:53:20.572Z,8.70
2019-05-29T22:55:49.352Z,8.70
2019-05-29T22:58:17.781Z,8.70
2019-05-29T23:00:46.211Z,8.70
2019-05-29T23:03:14.627Z,8.70
2019-05-29T23:05:43.064Z,8.60
2019-05-29T23:08:11.498Z,8.60
2019-05-29T23:10:40.244Z,8.60
2019-05-29T23:13:08.669Z,8.60
2019-05-29T23:15:37.115Z,8.60
2019-05-29T23:18:05.587Z,8.60
2019-05-29T23:20:34.010Z,8.50
2019-05-29T23:23:02.922Z,8.50
2019-05-29T23:25:31.513Z,8.40
2019-05-29T23:28:01.102Z,8.40
2019-05-29T23:30:30.816Z,8.50
2019-05-29T23:33:00.894Z,8.40
2019-05-29T23:35:29.764Z,8.40
2019-05-29T23:37:59.156Z,8.40
2019-05-29T23:40:28.060Z,8.40
2019-05-29T23:42:57.319Z,8.30
2019-05-29T23:45:25.858Z,8.30
2019-05-29T23:47:55.441Z,8.20
2019-05-29T23:50:24.331Z,8.20
2019-05-29T23:52:53.587Z,8.10
2019-05-29T23:55:22.120Z,8.10
2019-05-29T23:57:50.549Z,8.10
